Time,TemperatureF,DewpointF,PressureIn,WindDirection,WindDirectionDegrees,WindSpeedMPH,WindSpeedGustMPH,Humidity,HourlyPrecipIn,Conditions,Clouds,dailyrainin,SolarRadiationWatts/m^2,SoftwareType,DateUTC
2013-05-26 00:01:00,36.6,35.6,29.69,WNW,302,7.0,13.0,96,0.05,,OVC021,1.09,0.00,VWS V14.01,2013-05-26 04:01:00,
2013-05-26 00:11:00,37.0,36.0,29.69,WNW,292,5.0,16.0,96,0.04,,OVC027,0.00,0.00,VWS V14.01,2013-05-26 04:11:00,
2013-05-26 00:21:00,37.3,36.3,29.69,WNW,302,6.0,12.0,96,0.02,,OVC027,0.00,0.00,VWS V14.01,2013-05-26 04:21:00,
2013-05-26 00:31:00,37.5,36.2,29.69,NW,321,5.0,14.0,95,0.01,,OVC027,0.00,0.00,VWS V14.01,2013-05-26 04:31:00,
2013-05-26 00:41:00,37.6,36.3,29.69,West,274,6.0,16.0,95,0.00,,OVC027,0.00,0.00,VWS V14.01,2013-05-26 04:41:00,
2013-05-26 00:51:00,37.8,36.2,29.69,WNW,297,8.0,15.0,94,0.00,,OVC027,0.00,0.00,VWS V14.01,2013-05-26 04:51:00,
2013-05-26 01:01:00,38.0,36.2,29.69,NNW,330,4.0,12.0,93,0.00,,OVC027,0.00,0.00,VWS V14.01,2013-05-26 05:01:00,
2013-05-26 01:11:00,38.2,36.4,29.69,West,272,10.0,16.0,93,0.01,,OVC027,0.01,0.00,VWS V14.01,2013-05-26 05:11:00,
2013-05-26 01:21:00,38.5,36.4,29.68,West,274,10.0,16.0,92,0.01,,OVC027,0.01,0.00,VWS V14.01,2013-05-26 05:21:00,
2013-05-26 01:31:00,38.5,36.4,29.67,West,278,7.0,17.0,92,0.01,,OVC027,0.01,0.00,VWS V14.01,2013-05-26 05:31:00,
2013-05-26 01:41:00,38.5,36.1,29.67,NW,313,7.0,17.0,91,0.01,,OVC027,0.01,0.00,VWS V14.01,2013-05-26 05:41:00,
2013-05-26 01:51:00,38.6,36.2,29.67,NW,322,7.0,13.0,91,0.01,,OVC027,0.01,0.00,VWS V14.01,2013-05-26 05:51:00,
2013-05-26 02:01:00,38.8,36.4,29.67,NW,314,6.0,12.0,91,0.01,,OVC027,0.01,0.00,VWS V14.01,2013-05-26 06:01:00,
2013-05-26 02:11:00,38.8,36.1,29.67,NW,313,7.0,14.0,90,0.01,,OVC031,0.01,0.00,VWS V14.01,2013-05-26 06:11:00,
2013-05-26 02:21:00,38.6,36.2,29.67,NW,324,10.0,20.0,91,0.00,,OVC031,0.01,0.00,VWS V14.01,2013-05-26 06:21:00,
2013-05-26 02:31:00,38.6,36.5,29.67,WNW,294,8.0,16.0,92,0.01,,OVC031,0.02,0.00,VWS V14.01,2013-05-26 06:31:00,
2013-05-26 02:41:00,38.3,36.2,29.67,WNW,303,13.0,18.0,92,0.01,,OVC031,0.02,0.00,VWS V14.01,2013-05-26 06:41:00,
2013-05-26 02:51:00,38.2,36.4,29.67,NNW,331,4.0,16.0,93,0.02,,OVC031,0.03,0.00,VWS V14.01,2013-05-26 06:51:00,
2013-05-26 03:01:00,38.0,36.2,29.67,NW,307,9.0,17.0,93,0.03,,OVC031,0.04,0.00,VWS V14.01,2013-05-26 07:01:00,
2013-05-26 03:11:00,37.9,36.3,29.67,West,281,7.0,19.0,94,0.04,,OVC031,0.05,0.00,VWS V14.01,2013-05-26 07:11:00,
2013-05-26 03:21:00,37.9,36.3,29.67,NNW,334,7.0,16.0,94,0.04,,OVC031,0.05,0.00,VWS V14.01,2013-05-26 07:21:00,
2013-05-26 03:31:00,37.9,36.3,29.67,North,350,4.0,13.0,94,0.04,,OVC031,0.05,0.00,VWS V14.01,2013-05-26 07:31:00,
2013-05-26 03:41:00,37.9,36.6,29.67,WNW,285,6.0,15.0,95,0.03,,OVC027,0.05,0.00,VWS V14.01,2013-05-26 07:41:00,
2013-05-26 03:51:00,38.2,36.9,29.67,WNW,300,12.0,16.0,95,0.04,,OVC027,0.06,0.00,VWS V14.01,2013-05-26 07:51:00,
2013-05-26 04:01:00,38.3,37.0,29.67,West,278,4.0,16.0,95,0.03,,OVC027,0.06,0.00,VWS V14.01,2013-05-26 08:01:00,
2013-05-26 04:11:00,38.3,36.7,29.67,North,352,7.0,20.0,94,0.02,,OVC027,0.06,0.00,VWS V14.01,2013-05-26 08:11:00,
2013-05-26 04:21:00,38.5,36.9,29.67,NNW,342,9.0,17.0,94,0.01,,OVC027,0.06,0.00,VWS V14.01,2013-05-26 08:21:00,
2013-05-26 04:31:00,38.6,37.0,29.67,West,278,12.0,17.0,94,0.01,,OVC027,0.06,0.00,VWS V14.01,2013-05-26 08:31:00,
2013-05-26 04:41:00,38.6,36.8,29.67,North,354,7.0,14.0,93,0.01,,OVC027,0.06,0.00,VWS V14.01,2013-05-26 08:41:00,
2013-05-26 04:51:00,38.6,36.8,29.68,WNW,300,5.0,15.0,93,0.02,,OVC027,0.07,0.00,VWS V14.01,2013-05-26 08:51:00,
2013-05-26 05:01:00,38.8,37.0,29.68,NNW,333,10.0,13.0,93,0.01,,OVC027,0.07,0.00,VWS V14.01,2013-05-26 09:01:00,
2013-05-26 05:11:00,38.9,37.0,29.68,NW,309,4.0,14.0,93,0.01,,OVC029,0.07,0.00,VWS V14.01,2013-05-26 09:11:00,
2013-05-26 05:21:00,38.9,37.0,29.69,NNW,340,7.0,13.0,93,0.01,,OVC029,0.07,0.00,VWS V14.01,2013-05-26 09:21:00,
2013-05-26 05:31:00,39.1,37.2,29.69,NNW,331,7.0,17.0,93,0.02,,OVC029,0.08,0.00,VWS V14.01,2013-05-26 09:31:00,
2013-05-26 05:41:00,39.2,37.3,29.69,NNW,330,9.0,15.0,93,0.02,,OVC031,0.08,0.00,VWS V14.01,2013-05-26 09:41:00,
2013-05-26 05:51:00,39.2,37.1,29.69,NW,319,4.0,15.0,92,0.02,,OVC031,0.08,5.00,VWS V14.01,2013-05-26 09:51:00,
2013-05-26 06:01:00,39.3,37.2,29.70,WNW,294,6.0,13.0,92,0.01,,OVC031,0.08,5.00,VWS V14.01,2013-05-26 10:01:00,
2013-05-26 06:11:00,39.2,37.1,29.70,WNW,301,6.0,14.0,92,0.02,,OVC031,0.09,11.00,VWS V14.01,2013-05-26 10:11:00,
2013-05-26 06:21:00,39.3,37.2,29.71,NW,307,11.0,18.0,92,0.02,,OVC031,0.09,35.00,VWS V14.01,2013-05-26 10:21:00,
2013-05-26 06:31:00,39.5,37.7,29.71,NNE,18,8.0,14.0,93,0.03,,OVC031,0.10,54.00,VWS V14.01,2013-05-26 10:31:00,
2013-05-26 06:41:00,39.6,37.5,29.71,NNW,330,7.0,14.0,92,0.02,,OVC031,0.10,54.00,VWS V14.01,2013-05-26 10:41:00,
2013-05-26 06:51:00,39.6,37.5,29.71,WNW,288,10.0,13.0,92,0.02,,OVC031,0.10,56.00,VWS V14.01,2013-05-26 10:51:00,
2013-05-26 07:11:00,39.9,37.5,29.72,West,269,7.0,16.0,91,0.02,,OVC031,0.10,44.00,VWS V14.01,2013-05-26 11:11:00,
2013-05-26 07:21:00,39.8,37.4,29.72,WNW,290,11.0,12.0,91,0.01,,OVC031,0.10,54.00,VWS V14.01,2013-05-26 11:21:00,
2013-05-26 07:31:00,39.9,37.8,29.73,NNW,338,9.0,18.0,92,0.01,,OVC031,0.10,76.00,VWS V14.01,2013-05-26 11:31:00,
2013-05-26 07:41:00,40.3,37.9,29.73,West,281,9.0,14.0,91,0.00,,OVC033,0.10,107.00,VWS V14.01,2013-05-26 11:41:00,
2013-05-26 07:51:00,40.8,38.1,29.73,NW,309,9.0,15.0,90,0.00,,OVC033,0.10,151.00,VWS V14.01,2013-05-26 11:51:00,
2013-05-26 08:01:00,41.5,38.5,29.73,WSW,251,8.0,15.0,89,0.00,,OVC033,0.10,113.00,VWS V14.01,2013-05-26 12:01:00,
2013-05-26 08:11:00,42.2,38.6,29.73,WNW,297,3.0,17.0,87,0.00,,OVC033,0.10,132.00,VWS V14.01,2013-05-26 12:11:00,
2013-05-26 08:21:00,42.9,38.4,29.74,WNW,291,11.0,18.0,84,0.00,,OVC033,0.10,141.00,VWS V14.01,2013-05-26 12:21:00,
2013-05-26 08:31:00,42.6,37.8,29.74,NW,323,6.0,21.0,83,0.00,,OVC033,0.10,120.00,VWS V14.01,2013-05-26 12:31:00,
2013-05-26 08:41:00,42.9,38.1,29.74,WNW,293,13.0,21.0,83,0.00,,OVC060,0.10,120.00,VWS V14.01,2013-05-26 12:41:00,
2013-05-26 08:51:00,43.3,38.2,29.75,WSW,256,12.0,17.0,82,0.00,,OVC060,0.10,105.00,VWS V14.01,2013-05-26 12:51:00,
2013-05-26 09:01:00,44.3,38.5,29.76,West,275,16.0,20.0,80,0.00,,OVC060,0.10,149.00,VWS V14.01,2013-05-26 13:01:00,
2013-05-26 09:11:00,45.4,39.0,29.76,North,357,10.0,17.0,78,0.00,,OVC070,0.10,216.00,VWS V14.01,2013-05-26 13:11:00,
2013-05-26 09:21:00,45.4,38.0,29.76,WNW,297,13.0,22.0,75,0.00,,OVC070,0.10,276.00,VWS V14.01,2013-05-26 13:21:00,
2013-05-26 09:31:00,46.1,39.0,29.76,WNW,291,14.0,22.0,76,0.00,,OVC070,0.10,359.00,VWS V14.01,2013-05-26 13:31:00,
2013-05-26 09:41:00,46.0,38.9,29.76,NW,306,11.0,17.0,76,0.00,,OVC070,0.10,323.00,VWS V14.01,2013-05-26 13:41:00,
2013-05-26 09:51:00,46.4,39.3,29.77,NNE,32,11.0,16.0,76,0.00,,OVC070,0.10,362.00,VWS V14.01,2013-05-26 13:51:00,
2013-05-26 10:01:00,46.5,38.0,29.77,WNW,295,6.0,22.0,72,0.00,,OVC070,0.10,287.00,VWS V14.01,2013-05-26 14:01:00,
2013-05-26 10:11:00,46.2,38.0,29.77,West,272,5.0,15.0,73,0.00,,OVC030,0.10,376.00,VWS V14.01,2013-05-26 14:11:00,
2013-05-26 10:21:00,46.7,39.2,29.77,WNW,301,11.0,20.0,75,0.00,,OVC030,0.10,279.00,VWS V14.01,2013-05-26 14:21:00,
2013-05-26 10:31:00,46.7,38.9,29.78,NNW,336,7.0,19.0,74,0.00,,OVC030,0.10,260.00,VWS V14.01,2013-05-26 14:31:00,
2013-05-26 10:41:00,46.7,38.5,29.78,NW,312,5.0,17.0,73,0.00,,OVC030,0.10,258.00,VWS V14.01,2013-05-26 14:41:00,
2013-05-26 10:51:00,47.3,39.1,29.79,NNW,344,3.0,12.0,73,0.00,,OVC030,0.10,271.00,VWS V14.01,2013-05-26 14:51:00,
2013-05-26 11:01:00,47.3,38.0,29.79,NNW,337,7.0,17.0,70,0.00,,OVC030,0.10,334.00,VWS V14.01,2013-05-26 15:01:00,
2013-05-26 11:11:00,47.9,38.2,29.79,NW,310,12.0,13.0,69,0.00,,OVC032,0.10,441.00,VWS V14.01,2013-05-26 15:11:00,
2013-05-26 11:21:00,49.5,39.0,29.79,NNE,20,5.0,19.0,67,0.00,,OVC032,0.10,812.00,VWS V14.01,2013-05-26 15:21:00,
2013-05-26 11:31:00,49.8,37.7,29.79,North,354,4.0,16.0,63,0.00,,OVC032,0.10,895.00,VWS V14.01,2013-05-26 15:31:00,
2013-05-26 11:41:00,50.7,39.8,29.79,NNW,340,13.0,21.0,66,0.00,,OVC032,0.10,580.00,VWS V14.01,2013-05-26 15:41:00,
2013-05-26 11:51:00,51.0,39.3,29.78,NNE,23,12.0,14.0,64,0.00,,OVC032,0.10,408.00,VWS V14.01,2013-05-26 15:51:00,
2013-05-26 12:01:00,50.5,39.6,29.79,WNW,298,20.0,24.0,66,0.00,,OVC032,0.10,545.00,VWS V14.01,2013-05-26 16:01:00,
2013-05-26 12:11:00,52.2,38.8,29.79,WNW,302,6.0,27.0,60,0.00,,BKN060,0.10,431.00,VWS V14.01,2013-05-26 16:11:00,
2013-05-26 12:21:00,51.7,39.1,29.79,West,268,11.0,24.0,62,0.00,,BKN060,0.10,387.00,VWS V14.01,2013-05-26 16:21:00,
2013-05-26 12:31:00,51.7,38.7,29.80,North,359,17.0,30.0,61,0.00,,BKN060,0.10,364.00,VWS V14.01,2013-05-26 16:31:00,
2013-05-26 12:41:00,51.3,37.9,29.80,West,281,16.0,28.0,60,0.00,,BKN060,0.10,448.00,VWS V14.01,2013-05-26 16:41:00,
2013-05-26 12:51:00,51.9,38.9,29.80,WNW,286,9.0,22.0,61,0.00,,BKN060,0.10,520.00,VWS V14.01,2013-05-26 16:51:00,
2013-05-26 13:01:00,52.0,38.1,29.80,NW,317,5.0,24.0,59,0.00,,BKN060,0.10,457.00,VWS V14.01,2013-05-26 17:01:00,
2013-05-26 13:11:00,51.7,39.1,29.80,NW,316,14.0,22.0,62,0.00,,OVC044,0.10,469.00,VWS V14.01,2013-05-26 17:11:00,
2013-05-26 13:21:00,51.1,38.5,29.81,North,3,10.0,21.0,62,0.00,,OVC044,0.10,425.00,VWS V14.01,2013-05-26 17:21:00,
2013-05-26 13:31:00,51.0,38.5,29.82,WNW,299,6.0,24.0,62,0.00,,OVC044,0.10,415.00,VWS V14.01,2013-05-26 17:31:00,
2013-05-26 13:41:00,51.1,39.0,29.82,NW,316,7.0,21.0,63,0.00,,OVC044,0.10,387.00,VWS V14.01,2013-05-26 17:41:00,
2013-05-26 13:51:00,50.8,38.7,29.83,WNW,296,19.0,26.0,63,0.00,,OVC044,0.10,369.00,VWS V14.01,2013-05-26 17:51:00,
2013-05-26 14:01:00,50.7,38.6,29.83,West,275,18.0,25.0,63,0.00,,OVC044,0.10,329.00,VWS V14.01,2013-05-26 18:01:00,
2013-05-26 14:11:00,50.4,38.7,29.83,West,281,16.0,21.0,64,0.00,,BKN050,0.10,332.00,VWS V14.01,2013-05-26 18:11:00,
2013-05-26 14:21:00,49.8,39.3,29.83,WNW,302,15.0,22.0,67,0.00,,BKN050,0.10,413.00,VWS V14.01,2013-05-26 18:21:00,
2013-05-26 14:31:00,50.4,38.7,29.83,NW,318,14.0,24.0,64,0.00,,BKN050,0.10,626.00,VWS V14.01,2013-05-26 18:31:00,
2013-05-26 14:41:00,52.0,39.0,29.83,NW,325,13.0,29.0,61,0.00,,BKN050,0.10,1049.00,VWS V14.01,2013-05-26 18:41:00,
2013-05-26 14:51:00,52.6,38.3,29.83,North,359,11.0,27.0,58,0.00,,BKN050,0.10,387.00,VWS V14.01,2013-05-26 18:51:00,
2013-05-26 15:01:00,52.2,39.2,29.84,NW,305,6.0,18.0,61,0.00,,BKN050,0.10,306.00,VWS V14.01,2013-05-26 19:01:00,
2013-05-26 15:11:00,52.0,38.6,29.84,NW,304,10.0,16.0,60,0.00,,BKN050,0.10,283.00,VWS V14.01,2013-05-26 19:11:00,
2013-05-26 15:21:00,52.8,39.3,29.85,North,351,13.0,24.0,60,0.00,,BKN050,0.10,422.00,VWS V14.01,2013-05-26 19:21:00,
2013-05-26 15:31:00,53.6,39.2,29.85,West,273,12.0,25.0,58,0.00,,BKN050,0.10,330.00,VWS V14.01,2013-05-26 19:31:00,
2013-05-26 15:41:00,53.1,38.7,29.85,West,281,25.0,25.0,58,0.00,,BKN050,0.10,359.00,VWS V14.01,2013-05-26 19:41:00,
2013-05-26 15:51:00,52.8,39.7,29.86,West,270,18.0,29.0,61,0.00,,BKN050,0.10,276.00,VWS V14.01,2013-05-26 19:51:00,
2013-05-26 16:01:00,52.2,38.8,29.88,NE,34,17.0,24.0,60,0.00,,BKN050,0.10,216.00,VWS V14.01,2013-05-26 20:01:00,
2013-05-26 16:11:00,51.9,38.9,29.88,NW,324,6.0,22.0,61,0.00,,BKN110,0.10,221.00,VWS V14.01,2013-05-26 20:11:00,
2013-05-26 16:21:00,52.0,39.0,29.88,North,1,4.0,18.0,61,0.00,,BKN110,0.10,257.00,VWS V14.01,2013-05-26 20:21:00,
2013-05-26 16:31:00,52.2,38.8,29.88,NE,42,3.0,26.0,60,0.00,,BKN110,0.10,253.00,VWS V14.01,2013-05-26 20:31:00,
2013-05-26 16:41:00,52.5,39.5,29.88,NW,315,16.0,20.0,61,0.00,,BKN110,0.10,167.00,VWS V14.01,2013-05-26 20:41:00,
2013-05-26 16:51:00,52.2,39.6,29.89,NW,324,15.0,21.0,62,0.00,,BKN110,0.10,213.00,VWS V14.01,2013-05-26 20:51:00,
2013-05-26 17:01:00,53.9,39.9,29.89,NNW,328,11.0,21.0,59,0.00,,BKN110,0.10,828.00,VWS V14.01,2013-05-26 21:01:00,
2013-05-26 17:11:00,53.5,38.7,29.89,North,1,4.0,26.0,57,0.00,,OVC049,0.10,250.00,VWS V14.01,2013-05-26 21:11:00,
2013-05-26 17:21:00,54.1,40.5,29.91,WNW,289,12.0,21.0,60,0.00,,OVC049,0.10,684.00,VWS V14.01,2013-05-26 21:21:00,
2013-05-26 17:31:00,53.2,39.3,29.91,NW,305,10.0,20.0,59,0.00,,OVC049,0.10,171.00,VWS V14.01,2013-05-26 21:31:00,
2013-05-26 17:41:00,53.1,40.0,29.91,WNW,295,5.0,19.0,61,0.00,,OVC049,0.10,550.00,VWS V14.01,2013-05-26 21:41:00,
2013-05-26 17:51:00,53.3,39.8,29.91,West,262,12.0,19.0,60,0.00,,OVC049,0.10,443.00,VWS V14.01,2013-05-26 21:51:00,
2013-05-26 18:01:00,52.8,40.2,29.92,NW,307,4.0,19.0,62,0.00,,OVC049,0.10,111.00,VWS V14.01,2013-05-26 22:01:00,
2013-05-26 18:11:00,51.9,38.5,29.92,NW,304,10.0,22.0,60,0.00,,OVC050,0.10,360.00,VWS V14.01,2013-05-26 22:11:00,
2013-05-26 18:21:00,51.9,38.9,29.93,NNW,341,13.0,24.0,61,0.00,,OVC050,0.10,374.00,VWS V14.01,2013-05-26 22:21:00,
2013-05-26 18:31:00,52.0,39.0,29.93,WNW,298,10.0,22.0,61,0.00,,OVC050,0.10,267.00,VWS V14.01,2013-05-26 22:31:00,
2013-05-26 18:41:00,51.4,39.2,29.93,NW,322,8.0,16.0,63,0.00,,OVC050,0.10,185.00,VWS V14.01,2013-05-26 22:41:00,
2013-05-26 18:51:00,51.1,39.4,29.94,WNW,284,15.0,15.0,64,0.00,,OVC050,0.10,185.00,VWS V14.01,2013-05-26 22:51:00,
2013-05-26 19:01:00,50.2,39.3,29.95,WSW,251,10.0,16.0,66,0.00,,OVC050,0.10,76.00,VWS V14.01,2013-05-26 23:01:00,
2013-05-26 19:11:00,50.1,39.2,29.95,SE,143,5.0,20.0,66,0.00,,OVC050,0.10,83.00,VWS V14.01,2013-05-26 23:11:00,
2013-05-26 19:21:00,49.5,39.0,29.95,NW,321,3.0,21.0,67,0.00,,OVC050,0.10,21.00,VWS V14.01,2013-05-26 23:21:00,
2013-05-26 19:31:00,49.2,38.7,29.96,NNE,23,10.0,23.0,67,0.00,,OVC050,0.10,21.00,VWS V14.01,2013-05-26 23:31:00,
2013-05-26 19:41:00,48.9,38.8,29.96,WNW,294,14.0,21.0,68,0.00,,OVC050,0.10,21.00,VWS V14.01,2013-05-26 23:41:00,
2013-05-26 19:51:00,48.9,38.4,29.96,NNW,333,17.0,28.0,67,0.00,,OVC050,0.10,12.00,VWS V14.01,2013-05-26 23:51:00,
2013-05-26 20:01:00,48.6,38.5,29.97,WNW,294,7.0,21.0,68,0.00,,OVC050,0.10,5.00,VWS V14.01,2013-05-27 00:01:00,
2013-05-26 20:11:00,48.2,38.5,29.97,WNW,298,5.0,15.0,69,0.00,,OVC039,0.10,0.00,VWS V14.01,2013-05-27 00:11:00,
2013-05-26 20:21:00,48.0,38.3,29.98,WNW,293,7.0,14.0,69,0.00,,OVC039,0.10,0.00,VWS V14.01,2013-05-27 00:21:00,
2013-05-26 20:31:00,47.9,38.2,29.98,WNW,291,7.0,17.0,69,0.00,,OVC039,0.10,0.00,VWS V14.01,2013-05-27 00:31:00,
2013-05-26 20:41:00,47.7,38.4,29.98,West,270,7.0,12.0,70,0.00,,OVC039,0.10,0.00,VWS V14.01,2013-05-27 00:41:00,
2013-05-26 20:51:00,47.6,38.0,29.99,NW,310,4.0,15.0,69,0.00,,OVC039,0.10,0.00,VWS V14.01,2013-05-27 00:51:00,
2013-05-26 21:01:00,47.7,37.7,30.00,NE,53,2.0,13.0,68,0.00,,OVC039,0.10,0.00,VWS V14.01,2013-05-27 01:01:00,
2013-05-26 21:11:00,47.6,37.2,30.00,NNE,27,1.0,10.0,67,0.00,,OVC080,0.10,0.00,VWS V14.01,2013-05-27 01:11:00,
2013-05-26 21:21:00,48.0,36.4,30.00,North,11,10.0,21.0,64,0.00,,OVC080,0.10,0.00,VWS V14.01,2013-05-27 01:21:00,
2013-05-26 21:31:00,48.0,36.4,29.99,NNW,338,3.0,15.0,64,0.00,,OVC080,0.10,0.00,VWS V14.01,2013-05-27 01:31:00,
2013-05-26 21:41:00,47.6,36.8,29.99,WNW,290,5.0,11.0,66,0.00,,OVC120,0.10,0.00,VWS V14.01,2013-05-27 01:41:00,
2013-05-26 21:51:00,47.0,36.6,30.00,North,11,4.0,12.0,67,0.00,,OVC120,0.10,0.00,VWS V14.01,2013-05-27 01:51:00,
2013-05-26 22:01:00,47.1,36.0,30.00,West,275,6.0,7.0,65,0.00,,OVC120,0.10,0.00,VWS V14.01,2013-05-27 02:01:00,
2013-05-26 22:11:00,46.7,36.3,30.00,NW,326,3.0,10.0,67,0.00,,FEW120,0.10,0.00,VWS V14.01,2013-05-27 02:11:00,
2013-05-26 22:21:00,46.5,36.5,30.00,NW,304,7.0,12.0,68,0.00,,FEW120,0.10,0.00,VWS V14.01,2013-05-27 02:21:00,
2013-05-26 22:31:00,46.0,37.5,30.00,WNW,302,6.0,11.0,72,0.00,,FEW120,0.10,0.00,VWS V14.01,2013-05-27 02:31:00,
2013-05-26 22:41:00,45.5,37.4,30.00,WNW,289,6.0,10.0,73,0.00,,CLR,0.10,0.00,VWS V14.01,2013-05-27 02:41:00,
2013-05-26 22:51:00,45.1,38.0,30.01,West,278,7.0,11.0,76,0.00,,CLR,0.10,0.00,VWS V14.01,2013-05-27 02:51:00,
2013-05-26 23:01:00,44.8,37.7,30.01,WNW,286,6.0,10.0,76,0.00,,CLR,0.10,0.00,VWS V14.01,2013-05-27 03:01:00,
2013-05-26 23:11:00,44.6,37.8,30.01,WNW,283,6.0,8.0,77,0.00,,CLR,0.10,0.00,VWS V14.01,2013-05-27 03:11:00,
2013-05-26 23:21:00,44.5,38.1,30.00,West,281,6.0,10.0,78,0.00,,CLR,0.10,0.00,VWS V14.01,2013-05-27 03:21:00,
2013-05-26 23:31:00,44.3,37.6,30.01,WNW,289,6.0,10.0,77,0.00,,CLR,0.10,0.00,VWS V14.01,2013-05-27 03:31:00,
2013-05-26 23:41:00,44.3,37.6,30.01,WNW,292,9.0,12.0,77,0.00,,CLR,0.10,0.00,VWS V14.01,2013-05-27 03:41:00,
2013-05-26 23:51:00,44.6,37.8,30.01,WNW,294,10.0,13.0,77,0.00,,CLR,0.10,0.00,VWS V14.01,2013-05-27 03:51:00,